Dades meteomassalio
Diari Summary for Juliol 10, 2017 Units:  Metric    English   Both
« Previous Day
Next Day »
Diari Semanal Mensual Anual Personalitzat
  Maxima: Minima: Mijana:
Temperatura: 32.2 °C 19.6 °C 25.1 °C
Rosada: 21.2 °C 15.8 °C 18.3 °C
Humitat: 82 % 50 % 67 %
Velocitat del vent: 29.6 km/h 0.0 km/h 6.5 km/h
Racha vent: 29.6 km/h - -
Vent:- - SSE
Pressio: 1013.4 hPa 1009.0 hPa -
Pluja: 0.0 mm    
Historical Graphs
 
 
Tabular Data for Juliol 10, 2017
Time Temperature Dew Point Pressure Wind Wind Speed Wind Gust Humidity Rainfall Rate (Hourly) solar Conditions
00:03 24.2 °C 16.2 °C 1011.7 hPa Calm     61 % 0.0 mm 0.0 W/m2 CLR
00:08 24.1 °C 15.8 °C 1011.7 hPa Calm     60 % 0.0 mm 0.0 W/m2 CLR
00:13 24.1 °C 16.1 °C 1011.7 hPa Calm     61 % 0.0 mm 0.0 W/m2 CLR
00:18 23.9 °C 15.9 °C 1011.7 hPa Calm     61 % 0.0 mm 0.0 W/m2 CLR
00:23 23.8 °C 16.8 °C 1011.7 hPa Calm     65 % 0.0 mm 0.0 W/m2 CLR
00:28 23.6 °C 16.3 °C 1011.7 hPa Calm     64 % 0.0 mm 0.0 W/m2 CLR
00:33 23.4 °C 16.2 °C 1011.7 hPa Calm     64 % 0.0 mm 0.0 W/m2 CLR
00:38 23.2 °C 16.2 °C 1011.7 hPa Calm     65 % 0.0 mm 0.0 W/m2 CLR
00:43 23.0 °C 16.6 °C 1011.7 hPa Calm     67 % 0.0 mm 0.0 W/m2 CLR
00:48 22.9 °C 16.9 °C 1011.7 hPa Calm     69 % 0.0 mm 0.0 W/m2 CLR
00:53 22.7 °C 16.9 °C 1011.7 hPa Calm     70 % 0.0 mm 0.0 W/m2 CLR
00:58 22.4 °C 17.1 °C 1011.7 hPa Calm     72 % 0.0 mm 0.0 W/m2 CLR
01:03 22.1 °C 17.0 °C 1011.7 hPa Calm     73 % 0.0 mm 0.0 W/m2 CLR
01:08 21.8 °C 16.7 °C 1011.7 hPa Calm     73 % 0.0 mm 0.0 W/m2 CLR
01:13 21.7 °C 16.8 °C 1011.7 hPa Calm     74 % 0.0 mm 0.0 W/m2 CLR
01:18 21.6 °C 16.8 °C 1011.7 hPa Calm     74 % 0.0 mm 0.0 W/m2 CLR
01:23 21.6 °C 16.7 °C 1011.7 hPa Calm     74 % 0.0 mm 0.0 W/m2 CLR
01:28 21.4 °C 16.8 °C 1011.4 hPa Calm     75 % 0.0 mm 0.0 W/m2 CLR
01:33 21.3 °C 16.9 °C 1011.4 hPa Calm     76 % 0.0 mm 0.0 W/m2 CLR
01:38 21.3 °C 16.7 °C 1011.4 hPa Calm     75 % 0.0 mm 0.0 W/m2 CLR
01:43 21.8 °C 16.6 °C 1011.4 hPa Calm     72 % 0.0 mm 0.0 W/m2 CLR
01:48 22.3 °C 16.6 °C 1011.4 hPa Calm     70 % 0.0 mm 0.0 W/m2 CLR
01:53 22.4 °C 16.9 °C 1011.4 hPa Calm     71 % 0.0 mm 0.0 W/m2 CLR
01:58 22.3 °C 16.8 °C 1011.4 hPa Calm     71 % 0.0 mm 0.0 W/m2 CLR
02:04 22.2 °C 16.5 °C 1011.4 hPa Calm     70 % 0.0 mm 0.0 W/m2 CLR
02:09 22.3 °C 16.6 °C 1011.4 hPa Calm     70 % 0.0 mm 0.0 W/m2 CLR
02:14 22.3 °C 16.8 °C 1011.4 hPa Calm     71 % 0.0 mm 0.0 W/m2 CLR
02:19 22.0 °C 16.7 °C 1011.4 hPa Calm     72 % 0.0 mm 0.0 W/m2 CLR
02:24 21.7 °C 16.6 °C 1011.4 hPa Calm     73 % 0.0 mm 0.0 W/m2 CLR
02:29 21.5 °C 16.4 °C 1011.4 hPa Calm     73 % 0.0 mm 0.0 W/m2 CLR
02:34 21.3 °C 16.5 °C 1011.4 hPa Calm     74 % 0.0 mm 0.0 W/m2 CLR
02:39 21.2 °C 16.8 °C 1011.1 hPa Calm     76 % 0.0 mm 0.0 W/m2 CLR
02:44 21.1 °C 16.4 °C 1011.1 hPa Calm     75 % 0.0 mm 0.0 W/m2 CLR
02:49 21.3 °C 16.5 °C 1011.1 hPa Calm     74 % 0.0 mm 0.0 W/m2 CLR
02:54 21.4 °C 16.6 °C 1011.1 hPa Calm     74 % 0.0 mm 0.0 W/m2 CLR
02:59 21.3 °C 16.5 °C 1011.1 hPa Calm     74 % 0.0 mm 0.0 W/m2 CLR
03:04 21.3 °C 16.7 °C 1011.1 hPa Calm     75 % 0.0 mm 0.0 W/m2 CLR
03:09 21.2 °C 16.8 °C 1011.1 hPa Calm     76 % 0.0 mm 0.0 W/m2 CLR
03:14 21.2 °C 16.4 °C 1011.1 hPa Calm     74 % 0.0 mm 0.0 W/m2 CLR
03:19 21.3 °C 16.5 °C 1010.7 hPa Calm     74 % 0.0 mm 0.0 W/m2 CLR
03:24 21.3 °C 16.5 °C 1010.7 hPa Calm     74 % 0.0 mm 0.0 W/m2 CLR
03:29 21.3 °C 16.5 °C 1010.7 hPa Calm     74 % 0.0 mm 0.0 W/m2 CLR
03:34 21.3 °C 16.4 °C 1010.7 hPa Calm     74 % 0.0 mm 0.0 W/m2 CLR
03:39 21.3 °C 16.3 °C 1010.7 hPa Calm     73 % 0.0 mm 0.0 W/m2 CLR
03:44 21.4 °C 16.6 °C 1010.7 hPa Calm     74 % 0.0 mm 0.0 W/m2 CLR
03:49 21.5 °C 16.4 °C 1010.7 hPa Calm     73 % 0.0 mm 0.0 W/m2 CLR
03:54 21.5 °C 16.7 °C 1010.7 hPa Calm     74 % 0.0 mm 0.0 W/m2 CLR
03:59 21.4 °C 16.8 °C 1010.7 hPa Calm     75 % 0.0 mm 0.0 W/m2 CLR
04:04 21.2 °C 16.6 °C 1010.7 hPa Calm     75 % 0.0 mm 0.0 W/m2 CLR
04:09 20.9 °C 16.6 °C 1010.7 hPa Calm     76 % 0.0 mm 0.0 W/m2 CLR
04:14 20.8 °C 16.4 °C 1010.7 hPa Calm     76 % 0.0 mm 0.0 W/m2 CLR
04:19 20.7 °C 16.3 °C 1010.7 hPa Calm     76 % 0.0 mm 0.0 W/m2 CLR
04:24 20.5 °C 16.3 °C 1010.7 hPa Calm     77 % 0.0 mm 0.0 W/m2 CLR
04:29 20.4 °C 16.2 °C 1010.7 hPa Calm     77 % 0.0 mm 0.0 W/m2 CLR
04:34 20.4 °C 16.1 °C 1010.4 hPa Calm     76 % 0.0 mm 0.0 W/m2 CLR
04:39 20.6 °C 16.2 °C 1010.7 hPa Calm     76 % 0.0 mm 0.0 W/m2 CLR
04:44 20.6 °C 16.6 °C 1010.4 hPa Calm     78 % 0.0 mm 0.0 W/m2 CLR
04:49 20.4 °C 16.6 °C 1010.4 hPa Calm     79 % 0.0 mm 0.0 W/m2 CLR
04:54 20.2 °C 16.6 °C 1010.4 hPa Calm     80 % 0.0 mm 0.0 W/m2 CLR
04:55 20.1 °C 16.6 °C 1010.4 hPa Calm     80 % 0.0 mm 0.0 W/m2 CLR
05:00 20.1 °C 16.7 °C 1010.4 hPa Calm     81 % 0.0 mm 0.0 W/m2 CLR
05:05 20.1 °C 16.7 °C 1010.4 hPa Calm     81 % 0.0 mm 0.0 W/m2 CLR
05:10 20.0 °C 16.4 °C 1010.4 hPa Calm     80 % 0.0 mm 0.0 W/m2 CLR
05:15 19.9 °C 16.6 °C 1010.4 hPa Calm     81 % 0.0 mm 0.0 W/m2 CLR
05:16 19.9 °C 16.6 °C 1010.4 hPa Calm     81 % 0.0 mm 0.0 W/m2 CLR
05:21 19.8 °C 16.5 °C 1010.7 hPa Calm     81 % 0.0 mm 0.0 W/m2 CLR
05:26 19.8 °C 16.5 °C 1010.7 hPa Calm     81 % 0.0 mm 0.0 W/m2 CLR
05:31 19.8 °C 16.6 °C 1010.7 hPa Calm     82 % 0.0 mm 0.0 W/m2 CLR
05:36 19.7 °C 16.6 °C 1010.7 hPa Calm     82 % 0.0 mm 0.0 W/m2 CLR
05:41 19.6 °C 16.4 °C 1011.1 hPa NNW 6.4 km/h 6.4 km/h 82 % 0.0 mm 0.0 W/m2 CLR
05:46 20.1 °C 16.3 °C 1011.1 hPa NW 14.8 km/h 14.8 km/h 79 % 0.0 mm 0.0 W/m2 CLR
05:51 21.0 °C 16.6 °C 1011.4 hPa NW 14.8 km/h 14.8 km/h 76 % 0.0 mm 0.0 W/m2 CLR
05:56 21.4 °C 16.8 °C 1011.4 hPa NW 18.5 km/h 18.5 km/h 75 % 0.0 mm 0.0 W/m2 CLR
06:06 21.2 °C 16.8 °C 1011.4 hPa NW 14.8 km/h 14.8 km/h 76 % 0.0 mm 0.0 W/m2 CLR
06:11 20.9 °C 16.7 °C 1011.7 hPa WNW 17.7 km/h 17.7 km/h 77 % 0.0 mm 0.0 W/m2 CLR
06:16 20.7 °C 16.5 °C 1011.7 hPa WNW 13.0 km/h 13.0 km/h 77 % 0.0 mm 0.0 W/m2 CLR
06:21 20.5 °C 16.3 °C 1011.7 hPa NW 13.0 km/h 13.0 km/h 77 % 0.0 mm 0.0 W/m2 CLR
06:26 20.3 °C 16.4 °C 1012.1 hPa West 7.4 km/h 7.4 km/h 78 % 0.0 mm 0.0 W/m2 OVC
06:31 20.3 °C 16.3 °C 1012.1 hPa WNW 5.6 km/h 5.6 km/h 78 % 0.0 mm 0.0 W/m2 OVC
06:36 20.2 °C 16.3 °C 1012.1 hPa West 9.3 km/h 9.3 km/h 78 % 0.0 mm 0.0 W/m2 OVC
06:41 20.2 °C 16.3 °C 1012.1 hPa West 11.1 km/h 11.1 km/h 78 % 0.0 mm 5.0 W/m2 OVC
06:46 20.2 °C 16.3 °C 1012.1 hPa West 9.3 km/h 9.3 km/h 78 % 0.0 mm 7.0 W/m2 BKN
06:51 20.2 °C 16.3 °C 1012.1 hPa WNW 9.7 km/h 9.7 km/h 78 % 0.0 mm 11.0 W/m2 BKN
06:56 20.1 °C 16.2 °C 1012.1 hPa WSW 7.4 km/h 7.4 km/h 78 % 0.0 mm 14.0 W/m2 BKN
07:01 20.1 °C 16.2 °C 1012.4 hPa Calm     78 % 0.0 mm 18.0 W/m2 BKN
07:06 20.1 °C 16.2 °C 1012.4 hPa Calm     78 % 0.0 mm 23.0 W/m2 BKN
07:11 20.1 °C 16.3 °C 1012.4 hPa Calm     79 % 0.0 mm 26.0 W/m2 BKN
07:16 19.9 °C 16.4 °C 1012.4 hPa Calm     80 % 0.0 mm 32.0 W/m2 BKN
07:21 19.9 °C 16.2 °C 1012.4 hPa Calm     79 % 0.0 mm 42.0 W/m2 BKN
07:26 19.9 °C 16.2 °C 1012.4 hPa Calm     79 % 0.0 mm 54.0 W/m2 SCT
07:31 20.1 °C 16.3 °C 1012.4 hPa Calm     79 % 0.0 mm 62.0 W/m2 SCT
07:36 20.2 °C 16.4 °C 1012.8 hPa Calm     79 % 0.0 mm 72.0 W/m2 FEW
07:41 20.2 °C 16.3 °C 1012.8 hPa Calm     78 % 0.0 mm 84.0 W/m2 FEW
07:46 20.4 °C 16.4 °C 1012.8 hPa Calm     78 % 0.0 mm 98.0 W/m2 FEW
07:51 20.5 °C 16.6 °C 1012.8 hPa Calm     78 % 0.0 mm 111.0 W/m2 CLR
07:56 20.6 °C 16.4 °C 1012.8 hPa Calm     77 % 0.0 mm 125.0 W/m2 CLR
08:01 20.8 °C 16.6 °C 1012.8 hPa Calm     77 % 0.0 mm 144.0 W/m2 CLR
08:06 20.9 °C 16.6 °C 1012.8 hPa Calm     76 % 0.0 mm 156.0 W/m2 CLR
08:11 21.1 °C 16.7 °C 1013.1 hPa Calm     76 % 0.0 mm 178.0 W/m2 CLR
08:16 21.2 °C 16.6 °C 1013.1 hPa Calm     75 % 0.0 mm 193.0 W/m2 CLR
08:21 21.3 °C 16.7 °C 1012.8 hPa Calm     75 % 0.0 mm 209.0 W/m2 CLR
08:26 21.4 °C 16.8 °C 1012.8 hPa NW 9.3 km/h 9.3 km/h 75 % 0.0 mm 225.0 W/m2 CLR
08:31 21.5 °C 16.7 °C 1012.8 hPa NNW 9.7 km/h 9.7 km/h 74 % 0.0 mm 241.0 W/m2 CLR
08:36 21.6 °C 16.9 °C 1012.8 hPa NW 3.2 km/h 3.2 km/h 75 % 0.0 mm 255.0 W/m2 CLR
08:41 21.7 °C 16.8 °C 1012.8 hPa NW 5.6 km/h 5.6 km/h 74 % 0.0 mm 269.0 W/m2 CLR
08:46 21.8 °C 16.8 °C 1012.8 hPa Calm     73 % 0.0 mm 281.0 W/m2 CLR
08:51 22.1 °C 17.0 °C 1013.1 hPa NNW 1.6 km/h 1.6 km/h 73 % 0.0 mm 295.0 W/m2 CLR
08:56 22.2 °C 16.9 °C 1013.1 hPa Calm     72 % 0.0 mm 311.0 W/m2 CLR
09:01 22.4 °C 17.2 °C 1012.8 hPa Calm   0.3 km/h 72 % 0.0 mm 330.0 W/m2 CLR
09:06 22.5 °C 17.0 °C 1013.1 hPa Calm     71 % 0.0 mm 345.0 W/m2 CLR
09:11 22.7 °C 16.9 °C 1013.1 hPa Calm     70 % 0.0 mm 357.0 W/m2 CLR
09:16 22.9 °C 17.2 °C 1013.1 hPa Calm     70 % 0.0 mm 373.0 W/m2 CLR
09:21 23.1 °C 17.1 °C 1013.1 hPa Calm     69 % 0.0 mm 390.0 W/m2 CLR
09:26 23.3 °C 17.1 °C 1013.1 hPa Calm     68 % 0.0 mm 404.0 W/m2 CLR
09:31 23.6 °C 17.3 °C 1013.1 hPa Calm     68 % 0.0 mm 425.0 W/m2 CLR
09:36 24.0 °C 17.5 °C 1013.1 hPa Calm     67 % 0.0 mm 438.0 W/m2 CLR
09:41 24.3 °C 17.5 °C 1013.1 hPa ENE 1.9 km/h 1.9 km/h 66 % 0.0 mm 454.0 W/m2 CLR
09:46 24.3 °C 17.3 °C 1013.1 hPa Calm     65 % 0.0 mm 471.0 W/m2 CLR
09:51 24.2 °C 17.4 °C 1013.1 hPa Calm     66 % 0.0 mm 489.0 W/m2 CLR
09:56 24.1 °C 17.3 °C 1013.1 hPa WNW 1.9 km/h   66 % 0.0 mm 508.0 W/m2 CLR
10:01 24.3 °C 17.6 °C 1013.1 hPa Calm     66 % 0.0 mm 524.0 W/m2 CLR
10:07 24.6 °C 17.8 °C 1013.1 hPa Calm     66 % 0.0 mm 536.0 W/m2 CLR
10:12 24.7 °C 17.7 °C 1013.1 hPa ENE 5.6 km/h   65 % 0.0 mm 543.0 W/m2 CLR
10:17 24.9 °C 17.6 °C 1013.1 hPa ENE 5.6 km/h 5.6 km/h 64 % 0.0 mm 557.0 W/m2 CLR
10:22 25.1 °C 17.5 °C 1012.8 hPa Calm     63 % 0.0 mm 564.0 W/m2 CLR
10:27 25.2 °C 17.4 °C 1013.1 hPa Calm     62 % 0.0 mm 599.0 W/m2 CLR
10:32 25.2 °C 17.6 °C 1013.1 hPa Calm     63 % 0.0 mm 629.0 W/m2 CLR
10:37 25.1 °C 17.6 °C 1013.1 hPa ENE 5.6 km/h 5.6 km/h 63 % 0.0 mm 371.0 W/m2 CLR
10:42 25.2 °C 17.4 °C 1013.1 hPa Calm     62 % 0.0 mm 659.0 W/m2 CLR
10:47 25.3 °C 17.5 °C 1013.1 hPa Calm     62 % 0.0 mm 664.0 W/m2 CLR
10:52 25.5 °C 17.7 °C 1013.1 hPa Calm     62 % 0.0 mm 673.0 W/m2 CLR
10:57 25.8 °C 17.7 °C 1013.1 hPa Calm     61 % 0.0 mm 729.0 W/m2 CLR
11:02 25.9 °C 17.6 °C 1012.8 hPa East 5.6 km/h 5.6 km/h 60 % 0.0 mm 752.0 W/m2 CLR
11:07 26.0 °C 17.9 °C 1012.8 hPa Calm     61 % 0.0 mm 798.0 W/m2 CLR
11:12 26.1 °C 17.7 °C 1012.8 hPa Calm     60 % 0.0 mm 740.0 W/m2 CLR
11:17 26.2 °C 17.8 °C 1012.8 hPa Calm     60 % 0.0 mm 710.0 W/m2 CLR
11:22 26.2 °C 18.1 °C 1012.8 hPa Calm     61 % 0.0 mm 772.0 W/m2 CLR
11:27 26.5 °C 17.8 °C 1012.8 hPa East 7.4 km/h 7.4 km/h 59 % 0.0 mm 763.0 W/m2 CLR
11:32 26.6 °C 17.9 °C 1012.8 hPa Calm     59 % 0.0 mm 775.0 W/m2 CLR
11:37 26.5 °C 17.6 °C 1012.8 hPa SSE 1.9 km/h   58 % 0.0 mm 768.0 W/m2 CLR
11:42 26.8 °C 18.6 °C 1012.8 hPa Calm     61 % 0.0 mm 791.0 W/m2 CLR
11:47 26.9 °C 18.0 °C 1012.8 hPa Calm     58 % 0.0 mm 803.0 W/m2 CLR
11:52 27.1 °C 17.8 °C 1012.8 hPa Calm     57 % 0.0 mm 817.0 W/m2 CLR
11:57 27.3 °C 17.8 °C 1012.8 hPa Calm     56 % 0.0 mm 816.0 W/m2 CLR
11:59 27.3 °C 17.7 °C 1012.8 hPa Calm     56 % 0.0 mm 810.0 W/m2 CLR
12:04 27.3 °C 18.0 °C 1012.8 hPa NW 1.9 km/h 1.9 km/h 57 % 0.0 mm 826.0 W/m2 CLR
12:09 27.5 °C 18.5 °C 1012.8 hPa NNE 9.3 km/h 9.3 km/h 58 % 0.0 mm 840.0 W/m2 CLR
12:14 27.6 °C 18.3 °C 1012.4 hPa Calm     57 % 0.0 mm 826.0 W/m2 CLR
12:19 27.7 °C 18.4 °C 1012.4 hPa Calm     57 % 0.0 mm 831.0 W/m2 CLR
12:24 27.9 °C 18.6 °C 1012.4 hPa Calm     57 % 0.0 mm 833.0 W/m2 CLR
12:29 28.1 °C 18.2 °C 1012.4 hPa North 9.3 km/h 9.3 km/h 55 % 0.0 mm 838.0 W/m2 CLR
12:34 28.1 °C 18.4 °C 1012.4 hPa Calm     56 % 0.0 mm 846.0 W/m2 CLR
12:36 28.1 °C 18.4 °C 1012.4 hPa Calm     56 % 0.0 mm 847.0 W/m2 CLR
12:41 28.3 °C 19.3 °C 1012.4 hPa ENE 9.3 km/h 9.3 km/h 58 % 0.0 mm 854.0 W/m2 CLR
12:46 28.6 °C 19.0 °C 1012.4 hPa East 14.8 km/h 14.8 km/h 56 % 0.0 mm 861.0 W/m2 CLR
12:51 28.6 °C 18.7 °C 1012.4 hPa ENE 9.3 km/h 9.3 km/h 55 % 0.0 mm 860.0 W/m2 CLR
12:56 28.7 °C 19.0 °C 1012.1 hPa East 6.4 km/h 6.4 km/h 56 % 0.0 mm 872.0 W/m2 CLR
13:01 28.8 °C 19.4 °C 1012.1 hPa East 11.1 km/h 11.1 km/h 57 % 0.0 mm 874.0 W/m2 CLR
13:06 29.1 °C 19.1 °C 1012.1 hPa NNE 13.0 km/h 13.0 km/h 55 % 0.0 mm 877.0 W/m2 CLR
13:11 29.0 °C 19.3 °C 1012.1 hPa NE 5.6 km/h   56 % 0.0 mm 881.0 W/m2 CLR
13:16 29.3 °C 19.3 °C 1012.1 hPa ENE 14.8 km/h 14.8 km/h 55 % 0.0 mm 886.0 W/m2 CLR
13:21 29.3 °C 19.0 °C 1012.1 hPa NNE 7.4 km/h 7.4 km/h 54 % 0.0 mm 889.0 W/m2 CLR
13:26 29.2 °C 19.6 °C 1012.1 hPa NW 9.3 km/h 9.3 km/h 56 % 0.0 mm 889.0 W/m2 CLR
13:31 29.4 °C 19.4 °C 1012.1 hPa ENE 13.0 km/h 13.0 km/h 55 % 0.0 mm 895.0 W/m2 CLR
13:34 29.4 °C 19.1 °C 1011.7 hPa NNW 9.3 km/h 9.3 km/h 54 % 0.0 mm 898.0 W/m2 CLR
13:39 29.5 °C 19.2 °C 1011.7 hPa Calm     54 % 0.0 mm 902.0 W/m2 CLR
13:44 29.7 °C 19.4 °C 1011.7 hPa North 7.4 km/h 7.4 km/h 54 % 0.0 mm 902.0 W/m2 CLR
13:49 29.9 °C 19.6 °C 1011.7 hPa North 1.9 km/h 1.9 km/h 54 % 0.0 mm 905.0 W/m2 CLR
13:54 30.0 °C 19.4 °C 1011.4 hPa NNE 16.7 km/h 16.7 km/h 53 % 0.0 mm 904.0 W/m2 CLR
13:59 29.8 °C 19.5 °C 1011.4 hPa NNE 13.0 km/h 13.0 km/h 54 % 0.0 mm 902.0 W/m2 CLR
14:04 30.2 °C 19.6 °C 1011.1 hPa NNE 13.0 km/h 13.0 km/h 53 % 0.0 mm 907.0 W/m2 CLR
14:09 30.3 °C 19.4 °C 1011.4 hPa North 14.8 km/h 14.8 km/h 52 % 0.0 mm 902.0 W/m2 CLR
14:14 30.3 °C 19.7 °C 1011.1 hPa NNE 11.1 km/h 11.1 km/h 53 % 0.0 mm 898.0 W/m2 CLR
14:19 30.6 °C 19.6 °C 1011.1 hPa NNE 13.0 km/h 13.0 km/h 52 % 0.0 mm 900.0 W/m2 CLR
14:24 30.9 °C 19.9 °C 1011.1 hPa NE 14.8 km/h 14.8 km/h 52 % 0.0 mm 902.0 W/m2 CLR
14:29 31.1 °C 19.8 °C 1011.1 hPa North 18.5 km/h 18.5 km/h 51 % 0.0 mm 909.0 W/m2 CLR
14:34 31.1 °C 19.8 °C 1011.1 hPa ENE 22.2 km/h 22.2 km/h 51 % 0.0 mm 904.0 W/m2 CLR
14:39 31.1 °C 19.8 °C 1010.7 hPa NNE 13.0 km/h 13.0 km/h 51 % 0.0 mm 900.0 W/m2 CLR
14:44 31.2 °C 20.2 °C 1010.7 hPa North 11.3 km/h 11.3 km/h 52 % 0.0 mm 895.0 W/m2 CLR
14:49 31.3 °C 20.2 °C 1010.7 hPa NNE 20.4 km/h 20.4 km/h 52 % 0.0 mm 921.0 W/m2 CLR
14:54 31.4 °C 20.1 °C 1010.4 hPa NNE 22.2 km/h 22.2 km/h 51 % 0.0 mm 923.0 W/m2 CLR
14:59 31.3 °C 20.2 °C 1010.4 hPa NE 18.5 km/h 18.5 km/h 52 % 0.0 mm 925.0 W/m2 CLR
15:04 31.5 °C 20.4 °C 1010.4 hPa NNE 11.3 km/h 11.3 km/h 52 % 0.0 mm 907.0 W/m2 CLR
15:09 31.5 °C 20.1 °C 1010.4 hPa North 18.5 km/h 18.5 km/h 51 % 0.0 mm 940.0 W/m2 CLR
15:14 31.0 °C 20.0 °C 1010.4 hPa North 18.5 km/h 18.5 km/h 52 % 0.0 mm 216.0 W/m2 CLR
15:19 31.0 °C 20.3 °C 1010.4 hPa NNE 18.5 km/h 18.5 km/h 53 % 0.0 mm 257.0 W/m2 CLR
15:24 31.4 °C 20.7 °C 1010.0 hPa North 14.8 km/h 14.8 km/h 53 % 0.0 mm 895.0 W/m2 CLR
15:29 31.6 °C 20.2 °C 1010.0 hPa NE 11.1 km/h 11.1 km/h 51 % 0.0 mm 868.0 W/m2 CLR
15:34 31.9 °C 20.5 °C 1010.0 hPa NE 16.7 km/h 16.7 km/h 51 % 0.0 mm 872.0 W/m2 CLR
15:39 32.1 °C 20.7 °C 1010.0 hPa NE 11.1 km/h 11.1 km/h 51 % 0.0 mm 874.0 W/m2 CLR
15:44 32.2 °C 20.5 °C 1010.0 hPa ENE 13.0 km/h 13.0 km/h 50 % 0.0 mm 902.0 W/m2 CLR
15:49 32.0 °C 20.3 °C 1010.0 hPa NE 18.5 km/h 18.5 km/h 50 % 0.0 mm 267.0 W/m2 CLR
15:54 32.0 °C 20.6 °C 1010.0 hPa East 7.4 km/h 7.4 km/h 51 % 0.0 mm 810.0 W/m2 CLR
15:59 32.1 °C 20.7 °C 1009.7 hPa ENE 18.5 km/h 18.5 km/h 51 % 0.0 mm 805.0 W/m2 CLR
16:05 32.1 °C 20.7 °C 1009.7 hPa East 9.7 km/h 9.7 km/h 51 % 0.0 mm 728.0 W/m2 CLR
16:10 31.9 °C 20.6 °C 1009.7 hPa ENE 3.7 km/h 3.7 km/h 51 % 0.0 mm 802.0 W/m2 CLR
16:15 32.2 °C 20.8 °C 1009.7 hPa East 6.4 km/h 6.4 km/h 51 % 0.0 mm 805.0 W/m2 CLR
16:20 32.2 °C 20.8 °C 1009.7 hPa ENE 14.8 km/h 14.8 km/h 51 % 0.0 mm 860.0 W/m2 CLR
16:25 32.0 °C 20.6 °C 1009.7 hPa ENE 14.8 km/h 14.8 km/h 51 % 0.0 mm 318.0 W/m2 CLR
16:30 31.6 °C 20.8 °C 1009.7 hPa ENE 12.9 km/h 12.9 km/h 53 % 0.0 mm 322.0 W/m2 CLR
16:35 31.6 °C 20.8 °C 1009.4 hPa East 16.1 km/h 16.1 km/h 53 % 0.0 mm 740.0 W/m2 CLR
16:40 31.6 °C 20.8 °C 1009.7 hPa ESE 9.7 km/h 9.7 km/h 53 % 0.0 mm 737.0 W/m2 CLR
16:45 31.6 °C 20.9 °C 1009.4 hPa East 16.7 km/h 16.7 km/h 53 % 0.0 mm 724.0 W/m2 CLR
16:50 31.5 °C 20.8 °C 1009.4 hPa ENE 22.2 km/h 22.2 km/h 53 % 0.0 mm 708.0 W/m2 CLR
16:55 31.6 °C 20.8 °C 1009.4 hPa East 14.8 km/h 14.8 km/h 53 % 0.0 mm 693.0 W/m2 CLR
17:00 31.3 °C 20.8 °C 1009.4 hPa ESE 20.9 km/h 20.9 km/h 54 % 0.0 mm 693.0 W/m2 CLR
17:05 31.1 °C 21.0 °C 1009.4 hPa ENE 11.3 km/h 11.3 km/h 55 % 0.0 mm 673.0 W/m2 CLR
17:10 31.3 °C 20.8 °C 1009.4 hPa East 11.1 km/h 11.1 km/h 54 % 0.0 mm 666.0 W/m2 CLR
17:15 31.3 °C 21.2 °C 1009.4 hPa East 13.0 km/h 13.0 km/h 55 % 0.0 mm 682.0 W/m2 CLR
17:20 31.0 °C 20.9 °C 1009.4 hPa ENE 24.1 km/h 24.1 km/h 55 % 0.0 mm 334.0 W/m2 CLR
17:25 30.7 °C 20.9 °C 1009.4 hPa ESE 14.8 km/h 14.8 km/h 56 % 0.0 mm 675.0 W/m2 CLR
17:30 30.8 °C 20.7 °C 1009.4 hPa ESE 19.3 km/h 19.3 km/h 55 % 0.0 mm 647.0 W/m2 CLR
17:35 30.5 °C 20.7 °C 1009.4 hPa East 18.5 km/h 18.5 km/h 56 % 0.0 mm 262.0 W/m2 CLR
17:40 30.7 °C 21.2 °C 1009.0 hPa East 9.7 km/h 9.7 km/h 57 % 0.0 mm 657.0 W/m2 CLR
17:45 31.0 °C 21.2 °C 1009.0 hPa NE 20.4 km/h 20.4 km/h 56 % 0.0 mm 606.0 W/m2 CLR
17:50 30.9 °C 21.2 °C 1009.4 hPa ESE 18.5 km/h 18.5 km/h 56 % 0.0 mm 605.0 W/m2 CLR
17:55 30.4 °C 20.3 °C 1009.4 hPa SE 24.1 km/h 24.1 km/h 55 % 0.0 mm 636.0 W/m2 CLR
18:00 29.9 °C 20.2 °C 1009.4 hPa ESE 18.5 km/h 18.5 km/h 56 % 0.0 mm 251.0 W/m2 CLR
18:05 30.0 °C 20.3 °C 1009.4 hPa ESE 11.1 km/h 11.1 km/h 56 % 0.0 mm 693.0 W/m2 CLR
18:10 30.3 °C 19.9 °C 1009.7 hPa ESE 18.5 km/h 18.5 km/h 54 % 0.0 mm 592.0 W/m2 CLR
18:15 30.0 °C 20.0 °C 1009.7 hPa SE 27.8 km/h 27.8 km/h 55 % 0.0 mm 615.0 W/m2 CLR
18:20 29.4 °C 20.0 °C 1009.7 hPa ESE 20.4 km/h 20.4 km/h 57 % 0.0 mm 626.0 W/m2 CLR
18:25 29.5 °C 20.4 °C 1009.7 hPa SE 18.5 km/h 18.5 km/h 58 % 0.0 mm 251.0 W/m2 CLR
18:31 29.2 °C 20.1 °C 1009.7 hPa ESE 24.1 km/h 24.1 km/h 58 % 0.0 mm 548.0 W/m2 CLR
18:36 29.0 °C 19.9 °C 1009.7 hPa SE 22.2 km/h 22.2 km/h 58 % 0.0 mm 526.0 W/m2 CLR
18:41 28.7 °C 19.7 °C 1010.0 hPa SSE 18.5 km/h 18.5 km/h 58 % 0.0 mm 146.0 W/m2 CLR
18:46 28.4 °C 19.7 °C 1010.7 hPa South 12.9 km/h 12.9 km/h 59 % 0.0 mm 44.0 W/m2 CLR
18:51 28.1 °C 19.6 °C 1010.4 hPa South 29.6 km/h 29.6 km/h 60 % 0.0 mm 188.0 W/m2 FEW
18:56 27.8 °C 19.6 °C 1010.0 hPa SE 22.2 km/h 22.2 km/h 61 % 0.0 mm 589.0 W/m2 FEW
19:01 27.7 °C 19.8 °C 1010.0 hPa SSE 18.5 km/h 18.5 km/h 62 % 0.0 mm 308.0 W/m2 CLR
19:06 27.3 °C 19.7 °C 1010.0 hPa SSE 11.1 km/h 11.1 km/h 63 % 0.0 mm 485.0 W/m2 CLR
19:11 27.3 °C 19.3 °C 1010.0 hPa South 14.8 km/h 14.8 km/h 62 % 0.0 mm 441.0 W/m2 CLR
19:16 26.9 °C 18.5 °C 1010.4 hPa South 20.4 km/h 20.4 km/h 60 % 0.0 mm 439.0 W/m2 CLR
19:21 27.0 °C 19.1 °C 1010.4 hPa SSE 29.6 km/h 29.6 km/h 62 % 0.0 mm 418.0 W/m2 CLR
19:26 26.8 °C 20.1 °C 1010.4 hPa SE 25.9 km/h 25.9 km/h 67 % 0.0 mm 378.0 W/m2 CLR
19:31 26.2 °C 20.1 °C 1010.4 hPa SE 17.7 km/h 17.7 km/h 69 % 0.0 mm 155.0 W/m2 CLR
19:36 26.2 °C 20.3 °C 1011.1 hPa SSE 20.4 km/h 20.4 km/h 70 % 0.0 mm 214.0 W/m2 CLR
19:41 26.1 °C 20.4 °C 1011.1 hPa SSE 18.5 km/h 18.5 km/h 71 % 0.0 mm 327.0 W/m2 CLR
19:46 26.1 °C 20.7 °C 1010.7 hPa ESE 16.7 km/h 16.7 km/h 72 % 0.0 mm 158.0 W/m2 CLR
19:51 26.0 °C 20.8 °C 1010.4 hPa ESE 14.8 km/h 14.8 km/h 73 % 0.0 mm 223.0 W/m2 CLR
19:56 25.8 °C 20.8 °C 1010.4 hPa Calm     74 % 0.0 mm 207.0 W/m2 CLR
20:01 25.7 °C 20.7 °C 1010.4 hPa SSE 13.0 km/h 13.0 km/h 74 % 0.0 mm 123.0 W/m2 CLR
20:06 25.7 °C 20.5 °C 1010.4 hPa South 18.5 km/h 18.5 km/h 73 % 0.0 mm 181.0 W/m2 CLR
20:11 25.7 °C 20.5 °C 1010.4 hPa South 14.8 km/h 14.8 km/h 73 % 0.0 mm 167.0 W/m2 CLR
20:16 25.8 °C 20.8 °C 1010.4 hPa SSE 9.3 km/h 9.3 km/h 74 % 0.0 mm 146.0 W/m2 CLR
20:21 25.7 °C 20.5 °C 1010.4 hPa SSE 14.8 km/h 14.8 km/h 73 % 0.0 mm 123.0 W/m2 CLR
20:26 25.6 °C 20.4 °C 1010.4 hPa South 19.3 km/h 19.3 km/h 73 % 0.0 mm 114.0 W/m2 CLR
20:31 25.4 °C 20.4 °C 1010.4 hPa SSW 5.6 km/h 5.6 km/h 74 % 0.0 mm 90.0 W/m2 CLR
20:36 25.5 °C 20.7 °C 1010.4 hPa Calm     75 % 0.0 mm 70.0 W/m2 FEW
20:41 25.5 °C 20.5 °C 1010.7 hPa Calm     74 % 0.0 mm 58.0 W/m2 SCT
20:46 25.5 °C 20.7 °C 1010.7 hPa SSW 11.1 km/h 11.1 km/h 75 % 0.0 mm 44.0 W/m2 SCT
20:51 25.4 °C 20.7 °C 1011.1 hPa South 5.6 km/h 5.6 km/h 75 % 0.0 mm 35.0 W/m2 BKN
20:52 25.4 °C 20.7 °C 1011.1 hPa South 9.7 km/h 9.7 km/h 75 % 0.0 mm 32.0 W/m2 BKN
20:57 25.3 °C 20.6 °C 1011.1 hPa South 5.6 km/h   75 % 0.0 mm 23.0 W/m2 BKN
20:59 25.3 °C 20.5 °C 1011.1 hPa SSE 3.2 km/h   75 % 0.0 mm 19.0 W/m2 BKN
21:02 25.2 °C 20.7 °C 1011.1 hPa South 9.3 km/h 9.3 km/h 76 % 0.0 mm 16.0 W/m2 BKN
21:08 25.1 °C 20.5 °C 1011.1 hPa Calm     76 % 0.0 mm 11.0 W/m2 BKN
21:13 25.0 °C 20.5 °C 1011.1 hPa Calm     76 % 0.0 mm 9.0 W/m2 BKN
21:18 24.8 °C 20.3 °C 1011.1 hPa South 7.4 km/h 7.4 km/h 76 % 0.0 mm 9.0 W/m2 BKN
21:23 24.8 °C 20.4 °C 1011.1 hPa Calm     77 % 0.0 mm 7.0 W/m2 BKN
21:28 24.7 °C 20.4 °C 1011.4 hPa Calm     77 % 0.0 mm 0.0 W/m2 OVC
21:33 24.7 °C 20.6 °C 1011.1 hPa Calm     78 % 0.0 mm 0.0 W/m2 OVC
21:38 24.6 °C 20.5 °C 1011.4 hPa Calm     78 % 0.0 mm 0.0 W/m2 OVC
21:43 24.5 °C 20.6 °C 1011.4 hPa Calm     79 % 0.0 mm 0.0 W/m2 OVC
21:48 24.4 °C 20.6 °C 1011.4 hPa Calm     79 % 0.0 mm 0.0 W/m2 CLR
21:53 24.4 °C 20.5 °C 1011.4 hPa Calm     79 % 0.0 mm 0.0 W/m2 CLR
21:58 24.3 °C 20.7 °C 1011.7 hPa Calm     80 % 0.0 mm 0.0 W/m2 CLR
22:03 24.3 °C 20.6 °C 1011.7 hPa Calm     80 % 0.0 mm 0.0 W/m2 CLR
22:08 24.2 °C 20.6 °C 1011.7 hPa Calm     80 % 0.0 mm 0.0 W/m2 CLR
22:13 24.2 °C 20.6 °C 1011.7 hPa Calm     80 % 0.0 mm 0.0 W/m2 CLR
22:18 24.1 °C 20.4 °C 1012.1 hPa Calm     80 % 0.0 mm 0.0 W/m2 CLR
22:23 24.1 °C 20.4 °C 1012.1 hPa Calm     80 % 0.0 mm 0.0 W/m2 CLR
22:28 24.0 °C 20.3 °C 1012.1 hPa SW 3.7 km/h   80 % 0.0 mm 0.0 W/m2 CLR
22:33 24.0 °C 20.3 °C 1012.4 hPa West 5.6 km/h 5.6 km/h 80 % 0.0 mm 0.0 W/m2 CLR
22:38 23.9 °C 20.5 °C 1012.4 hPa Calm     81 % 0.0 mm 0.0 W/m2 CLR
22:43 23.8 °C 20.4 °C 1012.4 hPa Calm     81 % 0.0 mm 0.0 W/m2 CLR
22:48 23.7 °C 20.3 °C 1012.4 hPa Calm     81 % 0.0 mm 0.0 W/m2 CLR
22:53 23.7 °C 20.2 °C 1012.8 hPa Calm     81 % 0.0 mm 0.0 W/m2 CLR
22:58 23.6 °C 19.3 °C 1012.8 hPa West 5.6 km/h 5.6 km/h 77 % 0.0 mm 0.0 W/m2 CLR
23:03 23.7 °C 18.2 °C 1013.1 hPa WNW 14.8 km/h 14.8 km/h 71 % 0.0 mm 0.0 W/m2 CLR
23:08 24.0 °C 17.7 °C 1013.1 hPa WNW 14.8 km/h 14.8 km/h 68 % 0.0 mm 0.0 W/m2 CLR
23:13 24.1 °C 17.6 °C 1013.1 hPa WNW 13.0 km/h 13.0 km/h 67 % 0.0 mm 0.0 W/m2 CLR
23:18 24.1 °C 17.6 °C 1013.1 hPa WNW 11.1 km/h 11.1 km/h 67 % 0.0 mm 0.0 W/m2 CLR
23:23 24.1 °C 17.3 °C 1013.4 hPa West 5.6 km/h 5.6 km/h 66 % 0.0 mm 0.0 W/m2 CLR
23:28 24.1 °C 17.3 °C 1013.4 hPa WNW 11.1 km/h 11.1 km/h 66 % 0.0 mm 0.0 W/m2 CLR
23:33 24.0 °C 17.3 °C 1013.4 hPa WNW 9.3 km/h 9.3 km/h 66 % 0.0 mm 0.0 W/m2 CLR
23:38 23.9 °C 17.2 °C 1013.4 hPa WNW 14.8 km/h 14.8 km/h 66 % 0.0 mm 0.0 W/m2 CLR
23:43 23.8 °C 16.8 °C 1013.4 hPa NW 18.5 km/h 18.5 km/h 65 % 0.0 mm 0.0 W/m2 CLR
23:48 23.7 °C 17.0 °C 1013.4 hPa WSW 5.6 km/h   66 % 0.0 mm 0.0 W/m2 CLR
23:53 23.7 °C 16.9 °C 1013.4 hPa WSW 5.6 km/h 5.6 km/h 66 % 0.0 mm 0.0 W/m2 CLR
23:58 23.6 °C 16.9 °C 1013.4 hPa West 6.4 km/h 6.4 km/h 66 % 0.0 mm 0.0 W/m2 CLR
Lo Temps de Massalio
Compliments of Weather Underground - 1.25 mb